sensor_id;sensor_type;location;lat;lon;timestamp;temperature;humidity
14735;DHT22;7458;49.002;8.472;2022-12-10T00:01:10;4.10;99.90
14735;DHT22;7458;49.002;8.472;2022-12-10T00:03:38;4.20;99.90
14735;DHT22;7458;49.002;8.472;2022-12-10T00:06:07;4.50;99.90
14735;DHT22;7458;49.002;8.472;2022-12-10T00:08:35;4.20;99.90
14735;DHT22;7458;49.002;8.472;2022-12-10T00:11:07;4.40;99.90
14735;DHT22;7458;49.002;8.472;2022-12-10T00:13:35;4.20;99.90
14735;DHT22;7458;49.002;8.472;2022-12-10T00:16:04;4.10;99.90
14735;DHT22;7458;49.002;8.472;2022-12-10T00:18:31;4.10;99.90
14735;DHT22;7458;49.002;8.472;2022-12-10T00:20:57;4.10;99.90
14735;DHT22;7458;49.002;8.472;2022-12-10T00:23:23;4.10;99.90
14735;DHT22;7458;49.002;8.472;2022-12-10T00:25:50;4.10;99.90
14735;DHT22;7458;49.002;8.472;2022-12-10T00:28:15;4.10;99.90
14735;DHT22;7458;49.002;8.472;2022-12-10T00:30:41;4.20;99.90
14735;DHT22;7458;49.002;8.472;2022-12-10T00:33:07;4.10;99.90
14735;DHT22;7458;49.002;8.472;2022-12-10T00:35:35;4.00;99.90
14735;DHT22;7458;49.002;8.472;2022-12-10T00:38:02;4.00;99.90
14735;DHT22;7458;49.002;8.472;2022-12-10T00:40:28;4.00;99.90
14735;DHT22;7458;49.002;8.472;2022-12-10T00:42:53;4.00;99.90
14735;DHT22;7458;49.002;8.472;2022-12-10T00:45:19;4.00;99.90
14735;DHT22;7458;49.002;8.472;2022-12-10T00:47:45;4.00;99.90
14735;DHT22;7458;49.002;8.472;2022-12-10T00:50:10;4.00;99.90
14735;DHT22;7458;49.002;8.472;2022-12-10T00:52:36;4.00;99.90
14735;DHT22;7458;49.002;8.472;2022-12-10T00:55:02;4.00;99.90
14735;DHT22;7458;49.002;8.472;2022-12-10T00:57:28;4.00;99.90
14735;DHT22;7458;49.002;8.472;2022-12-10T00:59:54;3.90;99.90
14735;DHT22;7458;49.002;8.472;2022-12-10T01:02:20;3.90;99.90
14735;DHT22;7458;49.002;8.472;2022-12-10T01:04:46;3.90;99.90
14735;DHT22;7458;49.002;8.472;2022-12-10T01:07:12;3.90;99.90
14735;DHT22;7458;49.002;8.472;2022-12-10T01:09:39;3.80;99.90
14735;DHT22;7458;49.002;8.472;2022-12-10T01:12:05;3.80;99.90
14735;DHT22;7458;49.002;8.472;2022-12-10T01:14:33;3.80;99.90
14735;DHT22;7458;49.002;8.472;2022-12-10T01:17:01;3.90;99.90
14735;DHT22;7458;49.002;8.472;2022-12-10T01:19:29;3.90;99.90
14735;DHT22;7458;49.002;8.472;2022-12-10T01:21:56;3.90;99.90
14735;DHT22;7458;49.002;8.472;2022-12-10T01:24:24;3.80;99.90
14735;DHT22;7458;49.002;8.472;2022-12-10T01:26:52;3.80;99.90
14735;DHT22;7458;49.002;8.472;2022-12-10T01:29:18;3.80;99.90
14735;DHT22;7458;49.002;8.472;2022-12-10T01:31:44;3.80;99.90
14735;DHT22;7458;49.002;8.472;2022-12-10T01:34:12;3.80;99.90
14735;DHT22;7458;49.002;8.472;2022-12-10T01:36:41;3.90;99.90
14735;DHT22;7458;49.002;8.472;2022-12-10T01:39:14;4.20;99.90
14735;DHT22;7458;49.002;8.472;2022-12-10T01:42:09;3.80;99.90
14735;DHT22;7458;49.002;8.472;2022-12-10T01:47:09;3.80;99.90
14735;DHT22;7458;49.002;8.472;2022-12-10T01:49:39;3.80;99.90
14735;DHT22;7458;49.002;8.472;2022-12-10T01:52:08;3.80;99.90
14735;DHT22;7458;49.002;8.472;2022-12-10T01:54:39;4.00;99.90
14735;DHT22;7458;49.002;8.472;2022-12-10T01:57:13;3.70;99.90
14735;DHT22;7458;49.002;8.472;2022-12-10T01:59:48;3.70;99.90
14735;DHT22;7458;49.002;8.472;2022-12-10T02:05:32;3.70;99.90
14735;DHT22;7458;49.002;8.472;2022-12-10T02:08:14;3.70;99.90
14735;DHT22;7458;49.002;8.472;2022-12-10T02:13:42;3.60;99.90
14735;DHT22;7458;49.002;8.472;2022-12-10T02:16:25;3.70;99.90
14735;DHT22;7458;49.002;8.472;2022-12-10T02:21:59;3.60;99.90
14735;DHT22;7458;49.002;8.472;2022-12-10T02:24:29;3.60;99.90
14735;DHT22;7458;49.002;8.472;2022-12-10T02:27:28;3.60;99.90
14735;DHT22;7458;49.002;8.472;2022-12-10T02:30:00;3.60;99.90
14735;DHT22;7458;49.002;8.472;2022-12-10T02:32:33;3.60;99.90
14735;DHT22;7458;49.002;8.472;2022-12-10T02:35:11;3.60;99.90
14735;DHT22;7458;49.002;8.472;2022-12-10T02:37:51;3.60;99.90
14735;DHT22;7458;49.002;8.472;2022-12-10T02:40:26;3.80;99.90
14735;DHT22;7458;49.002;8.472;2022-12-10T02:42:58;3.60;99.90
14735;DHT22;7458;49.002;8.472;2022-12-10T02:45:27;3.60;99.90
14735;DHT22;7458;49.002;8.472;2022-12-10T02:47:57;3.60;99.90
14735;DHT22;7458;49.002;8.472;2022-12-10T02:50:24;3.60;99.90
14735;DHT22;7458;49.002;8.472;2022-12-10T02:52:50;3.50;99.90
14735;DHT22;7458;49.002;8.472;2022-12-10T02:55:17;3.50;99.90
14735;DHT22;7458;49.002;8.472;2022-12-10T03:01:39;3.40;99.90
14735;DHT22;7458;49.002;8.472;2022-12-10T03:07:17;3.30;99.90
14735;DHT22;7458;49.002;8.472;2022-12-10T03:09:58;3.40;99.90
14735;DHT22;7458;49.002;8.472;2022-12-10T03:12:49;3.40;99.90
14735;DHT22;7458;49.002;8.472;2022-12-10T03:15:21;3.40;99.90
14735;DHT22;7458;49.002;8.472;2022-12-10T03:17:51;3.50;99.90
14735;DHT22;7458;49.002;8.472;2022-12-10T03:20:19;3.70;99.90
14735;DHT22;7458;49.002;8.472;2022-12-10T03:22:49;3.50;99.90
14735;DHT22;7458;49.002;8.472;2022-12-10T03:25:18;3.50;99.90
14735;DHT22;7458;49.002;8.472;2022-12-10T03:27:49;3.50;99.90
14735;DHT22;7458;49.002;8.472;2022-12-10T03:30:19;3.50;99.90
14735;DHT22;7458;49.002;8.472;2022-12-10T03:32:45;3.50;99.90
14735;DHT22;7458;49.002;8.472;2022-12-10T03:35:13;3.50;99.90
14735;DHT22;7458;49.002;8.472;2022-12-10T03:37:41;3.60;99.90
14735;DHT22;7458;49.002;8.472;2022-12-10T03:40:08;3.50;99.90
14735;DHT22;7458;49.002;8.472;2022-12-10T03:42:37;3.40;99.90
14735;DHT22;7458;49.002;8.472;2022-12-10T03:45:04;3.30;99.90
14735;DHT22;7458;49.002;8.472;2022-12-10T03:47:30;3.40;99.90
14735;DHT22;7458;49.002;8.472;2022-12-10T03:49:56;3.40;99.90
14735;DHT22;7458;49.002;8.472;2022-12-10T03:52:22;3.50;99.90
14735;DHT22;7458;49.002;8.472;2022-12-10T03:54:48;3.50;99.90
14735;DHT22;7458;49.002;8.472;2022-12-10T03:57:13;3.50;99.90
14735;DHT22;7458;49.002;8.472;2022-12-10T03:59:39;3.50;99.90
14735;DHT22;7458;49.002;8.472;2022-12-10T04:02:05;3.50;99.90
14735;DHT22;7458;49.002;8.472;2022-12-10T04:04:31;3.50;99.90
14735;DHT22;7458;49.002;8.472;2022-12-10T04:06:57;3.40;99.90
14735;DHT22;7458;49.002;8.472;2022-12-10T04:09:23;3.40;99.90
14735;DHT22;7458;49.002;8.472;2022-12-10T04:11:48;3.40;99.90
14735;DHT22;7458;49.002;8.472;2022-12-10T04:14:14;3.40;99.90
14735;DHT22;7458;49.002;8.472;2022-12-10T04:16:59;3.40;99.90
14735;DHT22;7458;49.002;8.472;2022-12-10T04:19:25;3.40;99.90
14735;DHT22;7458;49.002;8.472;2022-12-10T04:21:51;3.50;99.90
14735;DHT22;7458;49.002;8.472;2022-12-10T04:24:36;3.40;99.90
14735;DHT22;7458;49.002;8.472;2022-12-10T04:27:26;3.50;99.90
14735;DHT22;7458;49.002;8.472;2022-12-10T04:29:55;3.40;99.90
14735;DHT22;7458;49.002;8.472;2022-12-10T04:32:23;3.40;99.90
14735;DHT22;7458;49.002;8.472;2022-12-10T04:34:50;3.40;99.90
14735;DHT22;7458;49.002;8.472;2022-12-10T04:37:17;3.50;99.90
14735;DHT22;7458;49.002;8.472;2022-12-10T04:39:43;3.40;99.90
14735;DHT22;7458;49.002;8.472;2022-12-10T04:42:09;3.40;99.90
14735;DHT22;7458;49.002;8.472;2022-12-10T04:44:36;3.40;99.90
14735;DHT22;7458;49.002;8.472;2022-12-10T04:47:06;3.40;99.90
14735;DHT22;7458;49.002;8.472;2022-12-10T04:49:33;3.40;99.90
14735;DHT22;7458;49.002;8.472;2022-12-10T04:51:59;3.40;99.90
14735;DHT22;7458;49.002;8.472;2022-12-10T04:54:26;3.40;99.90
14735;DHT22;7458;49.002;8.472;2022-12-10T04:56:52;3.40;99.90
14735;DHT22;7458;49.002;8.472;2022-12-10T04:59:18;3.50;99.90
14735;DHT22;7458;49.002;8.472;2022-12-10T05:01:44;3.40;99.90
14735;DHT22;7458;49.002;8.472;2022-12-10T05:04:12;3.40;99.90
14735;DHT22;7458;49.002;8.472;2022-12-10T05:06:40;3.90;99.90
14735;DHT22;7458;49.002;8.472;2022-12-10T05:09:06;3.50;99.90
14735;DHT22;7458;49.002;8.472;2022-12-10T05:11:33;3.50;99.90
14735;DHT22;7458;49.002;8.472;2022-12-10T05:13:59;3.50;99.90
14735;DHT22;7458;49.002;8.472;2022-12-10T05:16:28;3.40;99.90
14735;DHT22;7458;49.002;8.472;2022-12-10T05:18:56;3.40;99.90
14735;DHT22;7458;49.002;8.472;2022-12-10T05:21:24;3.40;99.90
14735;DHT22;7458;49.002;8.472;2022-12-10T05:24:15;5.40;99.90
14735;DHT22;7458;49.002;8.472;2022-12-10T05:26:42;3.40;99.90
14735;DHT22;7458;49.002;8.472;2022-12-10T05:29:08;1.30;99.90
14735;DHT22;7458;49.002;8.472;2022-12-10T05:31:34;3.30;99.90
14735;DHT22;7458;49.002;8.472;2022-12-10T05:34:00;3.60;99.90
14735;DHT22;7458;49.002;8.472;2022-12-10T05:36:29;3.50;99.90
14735;DHT22;7458;49.002;8.472;2022-12-10T05:38:57;3.30;99.90
14735;DHT22;7458;49.002;8.472;2022-12-10T05:41:26;3.30;99.90
14735;DHT22;7458;49.002;8.472;2022-12-10T05:43:55;3.20;99.90
14735;DHT22;7458;49.002;8.472;2022-12-10T05:46:25;3.20;99.90
14735;DHT22;7458;49.002;8.472;2022-12-10T05:48:53;3.50;99.90
14735;DHT22;7458;49.002;8.472;2022-12-10T05:51:22;3.20;99.90
14735;DHT22;7458;49.002;8.472;2022-12-10T05:53:51;3.20;99.90
14735;DHT22;7458;49.002;8.472;2022-12-10T05:56:20;3.20;99.90
14735;DHT22;7458;49.002;8.472;2022-12-10T05:58:49;3.20;99.90
14735;DHT22;7458;49.002;8.472;2022-12-10T06:01:22;3.20;99.90
14735;DHT22;7458;49.002;8.472;2022-12-10T06:03:50;3.10;99.90
14735;DHT22;7458;49.002;8.472;2022-12-10T06:06:26;3.00;99.90
14735;DHT22;7458;49.002;8.472;2022-12-10T06:08:54;3.10;99.90
14735;DHT22;7458;49.002;8.472;2022-12-10T06:11:22;3.10;99.90
14735;DHT22;7458;49.002;8.472;2022-12-10T06:13:48;3.20;99.90
14735;DHT22;7458;49.002;8.472;2022-12-10T06:16:15;3.20;99.90
14735;DHT22;7458;49.002;8.472;2022-12-10T06:18:41;3.20;99.90
14735;DHT22;7458;49.002;8.472;2022-12-10T06:21:18;3.20;99.90
14735;DHT22;7458;49.002;8.472;2022-12-10T06:23:46;3.20;99.90
14735;DHT22;7458;49.002;8.472;2022-12-10T06:26:16;3.10;99.90
14735;DHT22;7458;49.002;8.472;2022-12-10T06:28:47;3.10;99.90
14735;DHT22;7458;49.002;8.472;2022-12-10T06:31:14;3.20;99.90
14735;DHT22;7458;49.002;8.472;2022-12-10T06:33:41;3.20;99.90
14735;DHT22;7458;49.002;8.472;2022-12-10T06:36:09;3.20;99.90
14735;DHT22;7458;49.002;8.472;2022-12-10T06:38:37;3.20;99.90
14735;DHT22;7458;49.002;8.472;2022-12-10T06:41:08;3.20;99.90
14735;DHT22;7458;49.002;8.472;2022-12-10T06:43:35;3.20;99.90
14735;DHT22;7458;49.002;8.472;2022-12-10T06:46:09;3.20;99.90
14735;DHT22;7458;49.002;8.472;2022-12-10T06:48:37;3.20;99.90
14735;DHT22;7458;49.002;8.472;2022-12-10T06:51:05;3.60;99.90
14735;DHT22;7458;49.002;8.472;2022-12-10T06:53:32;3.40;99.90
14735;DHT22;7458;49.002;8.472;2022-12-10T06:56:00;3.30;99.90
14735;DHT22;7458;49.002;8.472;2022-12-10T06:58:29;3.20;99.90
14735;DHT22;7458;49.002;8.472;2022-12-10T07:01:03;3.20;99.90
14735;DHT22;7458;49.002;8.472;2022-12-10T07:03:30;3.30;99.90
14735;DHT22;7458;49.002;8.472;2022-12-10T07:06:00;3.10;99.90
14735;DHT22;7458;49.002;8.472;2022-12-10T07:08:27;3.10;99.90
14735;DHT22;7458;49.002;8.472;2022-12-10T07:10:53;3.20;99.90
14735;DHT22;7458;49.002;8.472;2022-12-10T07:13:19;3.20;99.90
14735;DHT22;7458;49.002;8.472;2022-12-10T07:15:45;3.20;99.90
14735;DHT22;7458;49.002;8.472;2022-12-10T07:18:10;3.20;99.90
14735;DHT22;7458;49.002;8.472;2022-12-10T07:20:36;3.20;99.90
14735;DHT22;7458;49.002;8.472;2022-12-10T07:23:02;3.20;99.90
14735;DHT22;7458;49.002;8.472;2022-12-10T07:25:27;3.40;99.90
14735;DHT22;7458;49.002;8.472;2022-12-10T07:27:53;3.20;99.90
14735;DHT22;7458;49.002;8.472;2022-12-10T07:30:19;3.10;99.90
14735;DHT22;7458;49.002;8.472;2022-12-10T07:32:45;3.10;99.90
14735;DHT22;7458;49.002;8.472;2022-12-10T07:35:10;3.10;99.90
14735;DHT22;7458;49.002;8.472;2022-12-10T07:37:36;3.20;99.90
14735;DHT22;7458;49.002;8.472;2022-12-10T07:40:02;3.10;99.90
14735;DHT22;7458;49.002;8.472;2022-12-10T07:42:28;3.20;99.90
14735;DHT22;7458;49.002;8.472;2022-12-10T07:44:54;3.10;99.90
14735;DHT22;7458;49.002;8.472;2022-12-10T07:47:20;3.00;99.90
14735;DHT22;7458;49.002;8.472;2022-12-10T07:49:45;3.00;99.90
14735;DHT22;7458;49.002;8.472;2022-12-10T07:52:11;3.00;99.90
14735;DHT22;7458;49.002;8.472;2022-12-10T07:54:37;3.60;99.90
14735;DHT22;7458;49.002;8.472;2022-12-10T07:57:03;3.50;99.90
14735;DHT22;7458;49.002;8.472;2022-12-10T07:59:28;3.50;99.90
14735;DHT22;7458;49.002;8.472;2022-12-10T08:01:54;3.40;99.90
14735;DHT22;7458;49.002;8.472;2022-12-10T08:04:20;3.30;99.90
14735;DHT22;7458;49.002;8.472;2022-12-10T08:06:46;3.30;99.90
14735;DHT22;7458;49.002;8.472;2022-12-10T08:09:13;3.40;99.90
14735;DHT22;7458;49.002;8.472;2022-12-10T08:11:38;3.40;99.90
14735;DHT22;7458;49.002;8.472;2022-12-10T08:14:04;3.50;99.90
14735;DHT22;7458;49.002;8.472;2022-12-10T08:16:30;3.30;99.90
14735;DHT22;7458;49.002;8.472;2022-12-10T08:18:58;3.30;99.90
14735;DHT22;7458;49.002;8.472;2022-12-10T08:21:28;3.20;99.90
14735;DHT22;7458;49.002;8.472;2022-12-10T08:23:55;3.20;99.90
14735;DHT22;7458;49.002;8.472;2022-12-10T08:26:23;3.10;99.90
14735;DHT22;7458;49.002;8.472;2022-12-10T08:28:51;3.10;99.90
14735;DHT22;7458;49.002;8.472;2022-12-10T08:31:20;3.20;99.90
14735;DHT22;7458;49.002;8.472;2022-12-10T08:33:47;4.10;99.90
14735;DHT22;7458;49.002;8.472;2022-12-10T08:36:14;4.40;99.90
14735;DHT22;7458;49.002;8.472;2022-12-10T08:38:42;4.40;99.90
14735;DHT22;7458;49.002;8.472;2022-12-10T08:41:15;4.00;99.90
14735;DHT22;7458;49.002;8.472;2022-12-10T08:43:43;3.80;99.90
14735;DHT22;7458;49.002;8.472;2022-12-10T08:46:11;3.70;99.90
14735;DHT22;7458;49.002;8.472;2022-12-10T08:48:38;3.70;99.90
14735;DHT22;7458;49.002;8.472;2022-12-10T08:51:06;3.60;99.90
14735;DHT22;7458;49.002;8.472;2022-12-10T08:53:34;3.60;99.90
14735;DHT22;7458;49.002;8.472;2022-12-10T08:56:00;3.50;99.90
14735;DHT22;7458;49.002;8.472;2022-12-10T08:58:26;3.80;99.90
14735;DHT22;7458;49.002;8.472;2022-12-10T09:00:52;3.60;99.90
14735;DHT22;7458;49.002;8.472;2022-12-10T09:03:21;3.50;99.90
14735;DHT22;7458;49.002;8.472;2022-12-10T09:05:46;3.50;99.90
14735;DHT22;7458;49.002;8.472;2022-12-10T09:08:13;3.50;99.90
14735;DHT22;7458;49.002;8.472;2022-12-10T09:10:39;3.50;99.90
14735;DHT22;7458;49.002;8.472;2022-12-10T09:13:06;3.40;99.90
14735;DHT22;7458;49.002;8.472;2022-12-10T09:15:33;3.50;99.90
14735;DHT22;7458;49.002;8.472;2022-12-10T09:17:58;3.50;99.90
14735;DHT22;7458;49.002;8.472;2022-12-10T09:20:24;3.50;99.90
14735;DHT22;7458;49.002;8.472;2022-12-10T09:22:50;3.50;99.90
14735;DHT22;7458;49.002;8.472;2022-12-10T09:25:16;3.30;99.90
14735;DHT22;7458;49.002;8.472;2022-12-10T09:27:43;3.50;99.90
14735;DHT22;7458;49.002;8.472;2022-12-10T09:30:10;3.50;99.90
14735;DHT22;7458;49.002;8.472;2022-12-10T09:32:36;3.40;99.90
14735;DHT22;7458;49.002;8.472;2022-12-10T09:35:02;3.50;99.90
14735;DHT22;7458;49.002;8.472;2022-12-10T09:37:29;3.50;99.90
14735;DHT22;7458;49.002;8.472;2022-12-10T09:39:55;3.60;99.90
14735;DHT22;7458;49.002;8.472;2022-12-10T09:42:31;3.60;99.90
14735;DHT22;7458;49.002;8.472;2022-12-10T09:45:17;3.60;99.90
14735;DHT22;7458;49.002;8.472;2022-12-10T09:48:10;3.60;99.90
14735;DHT22;7458;49.002;8.472;2022-12-10T09:54:03;3.60;99.90
14735;DHT22;7458;49.002;8.472;2022-12-10T09:56:38;3.60;99.90
14735;DHT22;7458;49.002;8.472;2022-12-10T09:59:36;3.60;99.90
14735;DHT22;7458;49.002;8.472;2022-12-10T10:02:29;3.50;99.90
14735;DHT22;7458;49.002;8.472;2022-12-10T10:07:39;3.70;99.90
14735;DHT22;7458;49.002;8.472;2022-12-10T10:10:36;3.60;99.90
14735;DHT22;7458;49.002;8.472;2022-12-10T10:15:35;3.70;99.90
14735;DHT22;7458;49.002;8.472;2022-12-10T10:18:11;3.70;99.90
14735;DHT22;7458;49.002;8.472;2022-12-10T10:20:57;3.80;99.90
14735;DHT22;7458;49.002;8.472;2022-12-10T10:23:25;3.70;99.90
14735;DHT22;7458;49.002;8.472;2022-12-10T10:25:51;3.70;99.90
14735;DHT22;7458;49.002;8.472;2022-12-10T10:28:20;3.60;99.90
14735;DHT22;7458;49.002;8.472;2022-12-10T10:30:48;3.60;99.90
14735;DHT22;7458;49.002;8.472;2022-12-10T10:33:15;7.50;99.90
14735;DHT22;7458;49.002;8.472;2022-12-10T10:36:09;9.40;99.90
14735;DHT22;7458;49.002;8.472;2022-12-10T10:38:47;7.20;99.90
14735;DHT22;7458;49.002;8.472;2022-12-10T10:41:14;6.20;99.90
14735;DHT22;7458;49.002;8.472;2022-12-10T10:43:42;5.50;99.90
14735;DHT22;7458;49.002;8.472;2022-12-10T10:48:36;4.70;99.90
14735;DHT22;7458;49.002;8.472;2022-12-10T11:01:52;4.60;99.90
14735;DHT22;7458;49.002;8.472;2022-12-10T11:04:52;4.30;99.90
14735;DHT22;7458;49.002;8.472;2022-12-10T11:12:45;4.00;99.90
14735;DHT22;7458;49.002;8.472;2022-12-10T11:17:53;4.10;99.90
14735;DHT22;7458;49.002;8.472;2022-12-10T11:20:26;4.10;99.90
14735;DHT22;7458;49.002;8.472;2022-12-10T11:22:57;4.00;99.90
14735;DHT22;7458;49.002;8.472;2022-12-10T11:37:33;4.20;99.90
14735;DHT22;7458;49.002;8.472;2022-12-10T11:40:22;4.20;99.90
14735;DHT22;7458;49.002;8.472;2022-12-10T11:43:09;4.20;99.90
14735;DHT22;7458;49.002;8.472;2022-12-10T11:46:29;4.10;99.90
14735;DHT22;7458;49.002;8.472;2022-12-10T11:58:11;4.10;99.90
14735;DHT22;7458;49.002;8.472;2022-12-10T12:00:59;4.10;99.90
14735;DHT22;7458;49.002;8.472;2022-12-10T12:04:08;4.50;99.90
14735;DHT22;7458;49.002;8.472;2022-12-10T12:15:37;4.50;99.90
14735;DHT22;7458;49.002;8.472;2022-12-10T12:21:24;4.60;99.90
14735;DHT22;7458;49.002;8.472;2022-12-10T12:27:00;4.40;99.90
14735;DHT22;7458;49.002;8.472;2022-12-10T12:29:37;4.20;99.90
14735;DHT22;7458;49.002;8.472;2022-12-10T12:32:21;4.20;99.90
14735;DHT22;7458;49.002;8.472;2022-12-10T12:35:02;4.20;99.90
14735;DHT22;7458;49.002;8.472;2022-12-10T12:37:54;4.20;99.90
14735;DHT22;7458;49.002;8.472;2022-12-10T12:40:33;4.20;99.90
14735;DHT22;7458;49.002;8.472;2022-12-10T12:43:16;4.10;99.90
14735;DHT22;7458;49.002;8.472;2022-12-10T12:45:48;4.10;99.90
14735;DHT22;7458;49.002;8.472;2022-12-10T12:48:33;4.20;99.90
14735;DHT22;7458;49.002;8.472;2022-12-10T12:51:11;4.20;99.90
14735;DHT22;7458;49.002;8.472;2022-12-10T12:53:41;4.20;99.90
14735;DHT22;7458;49.002;8.472;2022-12-10T13:02:32;4.10;99.90
14735;DHT22;7458;49.002;8.472;2022-12-10T13:05:14;4.10;99.90
14735;DHT22;7458;49.002;8.472;2022-12-10T13:19:28;4.30;99.90
14735;DHT22;7458;49.002;8.472;2022-12-10T13:22:03;4.30;99.90
14735;DHT22;7458;49.002;8.472;2022-12-10T13:32:21;4.10;99.90
14735;DHT22;7458;49.002;8.472;2022-12-10T13:37:35;4.20;99.90
14735;DHT22;7458;49.002;8.472;2022-12-10T13:42:36;4.20;99.90
14735;DHT22;7458;49.002;8.472;2022-12-10T13:56:34;4.30;99.90
14735;DHT22;7458;49.002;8.472;2022-12-10T14:07:39;4.60;99.90
14735;DHT22;7458;49.002;8.472;2022-12-10T14:10:15;4.50;99.90
14735;DHT22;7458;49.002;8.472;2022-12-10T14:12:45;5.00;99.90
14735;DHT22;7458;49.002;8.472;2022-12-10T14:15:21;4.80;99.90
14735;DHT22;7458;49.002;8.472;2022-12-10T14:17:52;4.80;99.90
14735;DHT22;7458;49.002;8.472;2022-12-10T14:20:27;4.60;99.90
14735;DHT22;7458;49.002;8.472;2022-12-10T14:22:56;4.60;99.90
14735;DHT22;7458;49.002;8.472;2022-12-10T14:25:46;4.50;99.90
14735;DHT22;7458;49.002;8.472;2022-12-10T14:28:14;4.50;99.90
14735;DHT22;7458;49.002;8.472;2022-12-10T14:30:48;4.50;99.90
14735;DHT22;7458;49.002;8.472;2022-12-10T14:33:17;4.40;99.90
14735;DHT22;7458;49.002;8.472;2022-12-10T14:35:48;4.40;99.90
14735;DHT22;7458;49.002;8.472;2022-12-10T14:38:41;4.40;99.90
14735;DHT22;7458;49.002;8.472;2022-12-10T14:41:18;4.30;99.90
14735;DHT22;7458;49.002;8.472;2022-12-10T14:43:45;4.30;99.90
14735;DHT22;7458;49.002;8.472;2022-12-10T14:46:16;4.10;99.90
14735;DHT22;7458;49.002;8.472;2022-12-10T14:48:49;4.10;99.90
14735;DHT22;7458;49.002;8.472;2022-12-10T14:51:19;4.10;99.90
14735;DHT22;7458;49.002;8.472;2022-12-10T14:53:49;4.20;99.90
14735;DHT22;7458;49.002;8.472;2022-12-10T14:56:23;4.20;99.90
14735;DHT22;7458;49.002;8.472;2022-12-10T14:59:14;4.20;99.90
14735;DHT22;7458;49.002;8.472;2022-12-10T15:01:56;4.20;99.90
14735;DHT22;7458;49.002;8.472;2022-12-10T15:04:38;4.30;99.90
14735;DHT22;7458;49.002;8.472;2022-12-10T15:07:11;4.30;99.90
14735;DHT22;7458;49.002;8.472;2022-12-10T15:09:40;4.30;99.90
14735;DHT22;7458;49.002;8.472;2022-12-10T15:12:20;4.20;99.90
14735;DHT22;7458;49.002;8.472;2022-12-10T15:23:20;4.20;99.90
14735;DHT22;7458;49.002;8.472;2022-12-10T15:25:51;4.20;99.90
14735;DHT22;7458;49.002;8.472;2022-12-10T15:28:36;4.20;99.90
14735;DHT22;7458;49.002;8.472;2022-12-10T15:33:56;4.20;99.90
14735;DHT22;7458;49.002;8.472;2022-12-10T15:39:49;4.20;99.90
14735;DHT22;7458;49.002;8.472;2022-12-10T15:41:58;4.20;99.90
14735;DHT22;7458;49.002;8.472;2022-12-10T15:44:54;4.20;99.90
14735;DHT22;7458;49.002;8.472;2022-12-10T15:47:25;4.20;99.90
14735;DHT22;7458;49.002;8.472;2022-12-10T15:49:54;4.50;99.90
14735;DHT22;7458;49.002;8.472;2022-12-10T15:52:24;4.30;99.90
14735;DHT22;7458;49.002;8.472;2022-12-10T15:54:54;4.30;99.90
14735;DHT22;7458;49.002;8.472;2022-12-10T15:57:36;4.20;99.90
14735;DHT22;7458;49.002;8.472;2022-12-10T16:00:19;4.30;99.90
14735;DHT22;7458;49.002;8.472;2022-12-10T16:02:58;4.30;99.90
14735;DHT22;7458;49.002;8.472;2022-12-10T16:05:35;4.20;99.90
14735;DHT22;7458;49.002;8.472;2022-12-10T16:08:23;4.20;99.90
14735;DHT22;7458;49.002;8.472;2022-12-10T16:10:54;4.20;99.90
14735;DHT22;7458;49.002;8.472;2022-12-10T16:13:34;4.20;99.90
14735;DHT22;7458;49.002;8.472;2022-12-10T16:16:07;4.10;99.90
14735;DHT22;7458;49.002;8.472;2022-12-10T16:18:34;4.10;99.90
14735;DHT22;7458;49.002;8.472;2022-12-10T16:21:05;4.10;99.90
14735;DHT22;7458;49.002;8.472;2022-12-10T16:23:32;4.10;99.90
14735;DHT22;7458;49.002;8.472;2022-12-10T16:25:58;4.00;99.90
14735;DHT22;7458;49.002;8.472;2022-12-10T16:28:26;4.00;99.90
14735;DHT22;7458;49.002;8.472;2022-12-10T16:30:57;5.20;99.90
14735;DHT22;7458;49.002;8.472;2022-12-10T16:33:26;3.90;99.90
14735;DHT22;7458;49.002;8.472;2022-12-10T16:35:54;4.10;99.90
14735;DHT22;7458;49.002;8.472;2022-12-10T16:38:22;3.80;99.90
14735;DHT22;7458;49.002;8.472;2022-12-10T16:40:49;3.80;99.90
14735;DHT22;7458;49.002;8.472;2022-12-10T16:43:18;3.80;99.90
14735;DHT22;7458;49.002;8.472;2022-12-10T16:45:46;3.80;99.90
14735;DHT22;7458;49.002;8.472;2022-12-10T16:48:12;3.70;99.90
14735;DHT22;7458;49.002;8.472;2022-12-10T16:50:39;3.70;99.90
14735;DHT22;7458;49.002;8.472;2022-12-10T16:55:44;3.50;99.90
14735;DHT22;7458;49.002;8.472;2022-12-10T16:58:11;3.60;99.90
14735;DHT22;7458;49.002;8.472;2022-12-10T17:00:40;3.60;99.90
14735;DHT22;7458;49.002;8.472;2022-12-10T17:03:10;3.60;99.90
14735;DHT22;7458;49.002;8.472;2022-12-10T17:05:48;3.60;99.90
14735;DHT22;7458;49.002;8.472;2022-12-10T17:08:16;3.50;99.90
14735;DHT22;7458;49.002;8.472;2022-12-10T17:10:43;3.50;99.90
14735;DHT22;7458;49.002;8.472;2022-12-10T17:13:28;3.50;99.90
14735;DHT22;7458;49.002;8.472;2022-12-10T17:15:56;3.60;99.90
14735;DHT22;7458;49.002;8.472;2022-12-10T17:18:22;3.60;99.90
14735;DHT22;7458;49.002;8.472;2022-12-10T17:20:49;3.60;99.90
14735;DHT22;7458;49.002;8.472;2022-12-10T17:23:15;3.40;99.90
14735;DHT22;7458;49.002;8.472;2022-12-10T17:25:42;3.50;99.90
14735;DHT22;7458;49.002;8.472;2022-12-10T17:28:20;3.50;99.90
14735;DHT22;7458;49.002;8.472;2022-12-10T17:30:48;3.50;99.90
14735;DHT22;7458;49.002;8.472;2022-12-10T17:33:18;3.50;99.90
14735;DHT22;7458;49.002;8.472;2022-12-10T17:35:46;3.40;99.90
14735;DHT22;7458;49.002;8.472;2022-12-10T17:38:19;3.90;99.90
14735;DHT22;7458;49.002;8.472;2022-12-10T17:40:47;5.20;99.90
14735;DHT22;7458;49.002;8.472;2022-12-10T17:43:13;4.80;99.90
14735;DHT22;7458;49.002;8.472;2022-12-10T17:45:42;4.60;99.90
14735;DHT22;7458;49.002;8.472;2022-12-10T17:48:14;4.40;99.90
14735;DHT22;7458;49.002;8.472;2022-12-10T17:50:42;4.20;99.90
14735;DHT22;7458;49.002;8.472;2022-12-10T17:53:10;4.20;99.90
14735;DHT22;7458;49.002;8.472;2022-12-10T17:55:40;4.00;99.90
14735;DHT22;7458;49.002;8.472;2022-12-10T17:58:10;4.00;99.90
14735;DHT22;7458;49.002;8.472;2022-12-10T18:00:37;3.90;99.90
14735;DHT22;7458;49.002;8.472;2022-12-10T18:03:05;4.10;99.90
14735;DHT22;7458;49.002;8.472;2022-12-10T18:05:31;4.00;99.90
14735;DHT22;7458;49.002;8.472;2022-12-10T18:07:57;4.00;99.90
14735;DHT22;7458;49.002;8.472;2022-12-10T18:10:26;4.00;99.90
14735;DHT22;7458;49.002;8.472;2022-12-10T18:12:55;3.80;99.90
14735;DHT22;7458;49.002;8.472;2022-12-10T18:15:23;3.70;99.90
14735;DHT22;7458;49.002;8.472;2022-12-10T18:17:50;3.70;99.90
14735;DHT22;7458;49.002;8.472;2022-12-10T18:20:26;3.60;99.90
14735;DHT22;7458;49.002;8.472;2022-12-10T18:22:54;3.60;99.90
14735;DHT22;7458;49.002;8.472;2022-12-10T18:25:21;3.80;99.90
14735;DHT22;7458;49.002;8.472;2022-12-10T18:27:48;3.50;99.90
14735;DHT22;7458;49.002;8.472;2022-12-10T18:30:21;3.50;99.90
14735;DHT22;7458;49.002;8.472;2022-12-10T18:32:49;3.70;99.90
14735;DHT22;7458;49.002;8.472;2022-12-10T18:35:15;3.60;99.90
14735;DHT22;7458;49.002;8.472;2022-12-10T18:37:42;3.70;99.90
14735;DHT22;7458;49.002;8.472;2022-12-10T18:40:20;3.60;99.90
14735;DHT22;7458;49.002;8.472;2022-12-10T18:42:46;3.50;99.90
14735;DHT22;7458;49.002;8.472;2022-12-10T18:45:15;3.30;99.90
14735;DHT22;7458;49.002;8.472;2022-12-10T18:47:41;3.20;99.90
14735;DHT22;7458;49.002;8.472;2022-12-10T18:50:25;3.20;99.90
14735;DHT22;7458;49.002;8.472;2022-12-10T18:52:53;3.10;99.90
14735;DHT22;7458;49.002;8.472;2022-12-10T18:55:22;3.10;99.90
14735;DHT22;7458;49.002;8.472;2022-12-10T18:57:53;3.10;99.90